Sinnamahoning, Pennsylvania
Current Conditions -  °F | °C
As of 10:54 AM on Monday 24 Nov 2014 (Local Time) from KFIG Reporting Station
Broken Clouds Broken Clouds  
Wind Chill: 64°   Ceiling: 5000
Heat Index: 64°   Visibility: 10mi
Dew Point: 50°   Wind: 20mph
Humidity: 60%   Direction: 180°S
Pressure: 29.48"   Gusts: 29mph
Location:  41.32°N, 78.1°W
Report Text: KFIG 241554Z AUTO 18017G25KT 10SM BKN050 BKN060 18/10 A2948 RMK AO2 SLP980 T01780100
Loading
Personal Weather Stations






























Interactive Weather Map New forecast layout! Learn more

10-Day Weather Forecast

Advertisements
Track Severe Weather on mobile